createdAt,value
2019-02-07T00:01:43.449Z,25.03
2019-02-07T00:04:12.641Z,21.23
2019-02-07T00:06:41.928Z,22.00
2019-02-07T00:09:11.512Z,23.40
2019-02-07T00:11:41.404Z,23.70
2019-02-07T00:14:10.729Z,21.77
2019-02-07T00:16:40.121Z,22.70
2019-02-07T00:19:09.482Z,24.30
2019-02-07T00:21:38.854Z,20.90
2019-02-07T00:24:08.337Z,22.20
2019-02-07T00:26:37.805Z,21.37
2019-02-07T00:29:07.186Z,24.70
2019-02-07T00:31:36.754Z,23.40
2019-02-07T00:34:06.441Z,22.07
2019-02-07T00:36:35.701Z,21.53
2019-02-07T00:39:07.484Z,24.33
2019-02-07T00:41:37.422Z,22.30
2019-02-07T00:44:06.966Z,24.87
2019-02-07T00:46:36.288Z,23.07
2019-02-07T00:49:05.733Z,21.73
2019-02-07T00:51:34.986Z,24.97
2019-02-07T00:54:04.791Z,22.93
2019-02-07T00:56:34.594Z,23.40
2019-02-07T00:59:04.276Z,23.77
2019-02-07T01:01:33.564Z,23.23
2019-02-07T01:04:02.869Z,23.30
2019-02-07T01:06:32.217Z,21.77
2019-02-07T01:09:01.624Z,24.57
2019-02-07T01:11:30.895Z,22.87
2019-02-07T01:14:00.256Z,22.43
2019-02-07T01:16:29.609Z,23.83
2019-02-07T01:18:59.266Z,24.60
2019-02-07T01:21:28.643Z,25.13
2019-02-07T01:23:58.204Z,22.33
2019-02-07T01:26:27.478Z,26.90
2019-02-07T01:28:56.765Z,22.10
2019-02-07T01:31:26.007Z,21.33
2019-02-07T01:33:55.214Z,24.23
2019-02-07T01:36:24.521Z,23.77
2019-02-07T01:38:53.961Z,22.53
2019-02-07T01:41:23.349Z,22.83
2019-02-07T01:43:52.895Z,27.63
2019-02-07T01:46:22.244Z,22.77
2019-02-07T01:48:51.525Z,24.97
2019-02-07T01:51:20.969Z,24.93
2019-02-07T01:53:50.221Z,23.63
2019-02-07T01:56:19.742Z,25.27
2019-02-07T01:58:48.933Z,23.27
2019-02-07T02:01:18.103Z,22.27
2019-02-07T02:03:47.438Z,24.90
2019-02-07T02:06:16.717Z,25.27
2019-02-07T02:08:46.044Z,22.97
2019-02-07T02:11:15.737Z,24.57
2019-02-07T02:13:45.096Z,23.20
2019-02-07T02:16:14.742Z,23.43
2019-02-07T02:18:44.176Z,23.93
2019-02-07T02:21:13.629Z,23.67
2019-02-07T02:23:42.885Z,26.63
2019-02-07T02:26:12.764Z,24.90
2019-02-07T02:28:43.143Z,23.83
2019-02-07T02:31:12.853Z,21.87
2019-02-07T02:33:42.081Z,23.20
2019-02-07T02:36:11.693Z,23.17
2019-02-07T02:38:41.213Z,24.03
2019-02-07T02:41:10.584Z,23.40
2019-02-07T02:43:40.336Z,24.87
2019-02-07T02:46:09.754Z,22.83
2019-02-07T02:48:38.975Z,28.23
2019-02-07T02:51:08.215Z,25.73
2019-02-07T02:53:37.497Z,23.53
2019-02-07T02:56:06.905Z,23.17
2019-02-07T02:58:36.436Z,23.90
2019-02-07T03:01:21.546Z,24.40
2019-02-07T03:04:18.763Z,24.43
2019-02-07T03:07:05.733Z,22.87
2019-02-07T03:10:03.064Z,23.37
2019-02-07T03:12:49.676Z,24.80
2019-02-07T03:15:56.165Z,24.37
2019-02-07T03:18:39.785Z,25.80
2019-02-07T03:21:26.787Z,28.07
2019-02-07T03:24:11.906Z,24.17
2019-02-07T03:27:05.146Z,27.67
2019-02-07T03:29:51.804Z,25.83
2019-02-07T03:32:41.120Z,26.40
2019-02-07T03:35:41.624Z,24.73
2019-02-07T03:38:35.550Z,29.93
2019-02-07T03:41:23.940Z,26.07
2019-02-07T03:44:06.409Z,26.30
2019-02-07T03:46:57.943Z,25.53
2019-02-07T03:49:51.873Z,29.50
2019-02-07T03:52:40.062Z,28.47
2019-02-07T03:55:35.158Z,28.93
2019-02-07T03:58:29.805Z,25.40
2019-02-07T04:01:35.898Z,28.23
2019-02-07T04:04:22.929Z,29.83
2019-02-07T04:07:14.006Z,26.50
2019-02-07T04:10:00.010Z,24.37
2019-02-07T04:12:47.034Z,27.77
2019-02-07T04:15:29.074Z,25.77
2019-02-07T04:18:20.197Z,26.47
2019-02-07T04:21:06.336Z,28.03
2019-02-07T04:23:53.433Z,26.83
2019-02-07T04:26:50.614Z,29.00
2019-02-07T04:29:33.756Z,29.23
2019-02-07T04:32:20.953Z,25.13
2019-02-07T04:35:12.067Z,27.47
2019-02-07T04:37:57.629Z,29.87
2019-02-07T04:40:46.176Z,25.03
2019-02-07T04:43:30.499Z,27.63
2019-02-07T04:46:26.702Z,27.97
2019-02-07T04:49:03.873Z,30.93
2019-02-07T04:51:54.898Z,28.70
2019-02-07T04:54:41.731Z,26.47
2019-02-07T04:57:39.153Z,32.03
2019-02-07T05:00:28.305Z,27.53
2019-02-07T05:03:16.481Z,27.90
2019-02-07T05:06:17.305Z,30.70
2019-02-07T05:09:11.339Z,27.53
2019-02-07T05:12:05.661Z,27.77
2019-02-07T05:15:11.960Z,26.33
2019-02-07T05:18:00.461Z,26.40
2019-02-07T05:20:42.178Z,27.10
2019-02-07T05:23:33.243Z,27.53
2019-02-07T05:26:30.592Z,32.07
2019-02-07T05:29:17.409Z,30.07
2019-02-07T05:31:59.291Z,26.30
2019-02-07T05:34:39.002Z,30.37
2019-02-07T05:37:30.297Z,28.60
2019-02-07T05:40:17.247Z,31.47
2019-02-07T05:43:11.566Z,25.17
2019-02-07T05:46:06.665Z,27.10
2019-02-07T05:48:51.357Z,28.70
2019-02-07T05:51:51.895Z,29.50
2019-02-07T05:54:39.061Z,29.00
2019-02-07T05:57:39.546Z,28.57
2019-02-07T06:00:34.932Z,28.80
2019-02-07T06:03:24.060Z,29.13
2019-02-07T06:06:11.713Z,24.60
2019-02-07T06:09:09.109Z,26.67
2019-02-07T06:11:57.444Z,27.27
2019-02-07T06:14:44.073Z,34.80
2019-02-07T06:17:35.376Z,30.30
2019-02-07T06:20:33.412Z,28.33
2019-02-07T06:23:39.644Z,27.37
2019-02-07T06:26:21.283Z,25.53
2019-02-07T06:29:14.969Z,29.73
2019-02-07T06:31:56.877Z,27.20
2019-02-07T06:34:46.802Z,28.47
2019-02-07T06:37:35.056Z,28.23
2019-02-07T06:40:20.962Z,27.60
2019-02-07T06:43:15.154Z,27.47
2019-02-07T06:45:56.073Z,28.87
2019-02-07T06:48:59.222Z,28.70
2019-02-07T06:52:05.697Z,30.57
2019-02-07T06:54:52.393Z,27.77
2019-02-07T06:57:46.716Z,29.43
2019-02-07T07:00:29.505Z,32.10
2019-02-07T07:03:30.517Z,26.40
2019-02-07T07:06:17.262Z,27.30
2019-02-07T07:09:14.421Z,26.07
2019-02-07T07:11:59.658Z,22.43
2019-02-07T07:14:49.287Z,24.63
2019-02-07T07:17:36.666Z,22.97
2019-02-07T07:20:21.088Z,23.33
2019-02-07T07:23:08.426Z,20.90
2019-02-07T07:26:11.851Z,21.87
2019-02-07T07:29:18.214Z,22.90
2019-02-07T07:32:05.133Z,23.47
2019-02-07T07:35:00.099Z,23.47
2019-02-07T07:37:41.726Z,23.93
2019-02-07T07:40:29.478Z,25.70
2019-02-07T07:43:18.293Z,22.33
2019-02-07T07:46:04.877Z,23.43
2019-02-07T07:48:51.812Z,20.67
2019-02-07T07:51:38.274Z,24.23
2019-02-07T07:54:29.583Z,22.53
2019-02-07T07:57:23.969Z,25.47
2019-02-07T08:00:10.905Z,21.93
2019-02-07T08:03:02.010Z,26.27
2019-02-07T08:05:49.187Z,20.17
2019-02-07T08:08:49.570Z,22.07
2019-02-07T08:11:28.290Z,25.27
2019-02-07T08:14:15.471Z,27.37
2019-02-07T08:17:02.256Z,23.60
2019-02-07T08:19:49.405Z,24.23
2019-02-07T08:22:37.688Z,26.27
2019-02-07T08:25:45.166Z,27.27
2019-02-07T08:28:37.764Z,24.60
2019-02-07T08:31:26.333Z,24.67
2019-02-07T08:34:13.097Z,23.27
2019-02-07T08:37:07.400Z,22.27
2019-02-07T08:40:01.858Z,23.20
2019-02-07T08:42:53.509Z,24.00
2019-02-07T08:45:42.690Z,25.53
2019-02-07T08:48:29.675Z,22.70
2019-02-07T08:51:05.444Z,22.27
2019-02-07T08:53:57.921Z,25.27
2019-02-07T08:56:35.458Z,27.17
2019-02-07T08:59:22.345Z,23.27
2019-02-07T09:02:17.809Z,21.40
2019-02-07T09:05:04.446Z,24.20
2019-02-07T09:07:51.216Z,26.83
2019-02-07T09:10:52.634Z,25.23
2019-02-07T09:13:40.839Z,30.67
2019-02-07T09:16:27.825Z,21.70
2019-02-07T09:19:18.515Z,24.97
2019-02-07T09:22:05.261Z,23.73
2019-02-07T09:24:52.016Z,22.67
2019-02-07T09:27:52.430Z,22.03
2019-02-07T09:30:41.299Z,23.10
2019-02-07T09:33:29.533Z,23.87
2019-02-07T09:36:20.598Z,22.13
2019-02-07T09:39:29.786Z,26.63
2019-02-07T09:42:16.493Z,25.53
2019-02-07T09:45:03.441Z,23.53
2019-02-07T09:47:59.113Z,24.97
2019-02-07T09:50:46.479Z,26.83
2019-02-07T09:53:40.886Z,24.67
2019-02-07T09:56:27.531Z,27.03
2019-02-07T09:59:14.439Z,23.67
2019-02-07T10:02:02.656Z,26.17
2019-02-07T10:04:59.890Z,26.20
2019-02-07T10:07:48.593Z,25.30
2019-02-07T10:10:39.955Z,23.73
2019-02-07T10:13:26.945Z,24.47
2019-02-07T10:16:06.090Z,25.23
2019-02-07T10:18:52.964Z,25.00
2019-02-07T10:21:43.920Z,27.27
2019-02-07T10:24:30.528Z,25.93
2019-02-07T10:27:14.770Z,28.80
2019-02-07T10:30:09.266Z,23.00
2019-02-07T10:32:50.554Z,30.60
2019-02-07T10:35:44.618Z,29.87
2019-02-07T10:38:32.625Z,25.73
2019-02-07T10:41:21.050Z,27.83
2019-02-07T10:44:08.267Z,25.80
2019-02-07T10:46:56.197Z,22.03
2019-02-07T10:49:45.981Z,22.10
2019-02-07T10:52:30.948Z,27.63
2019-02-07T10:55:19.260Z,26.10
2019-02-07T10:58:13.493Z,27.90
2019-02-07T11:01:04.862Z,26.20
2019-02-07T11:03:53.281Z,26.47
2019-02-07T11:06:39.866Z,30.43
2019-02-07T11:09:25.678Z,26.80
2019-02-07T11:12:13.079Z,29.70
2019-02-07T11:14:59.675Z,25.63
2019-02-07T11:17:46.979Z,25.87
2019-02-07T11:20:28.838Z,28.87
2019-02-07T11:23:06.617Z,28.17
2019-02-07T11:25:51.998Z,25.10
2019-02-07T11:28:35.209Z,26.87
2019-02-07T11:31:26.049Z,23.57
2019-02-07T11:34:15.818Z,23.90
2019-02-07T11:37:08.306Z,18.77
2019-02-07T11:39:56.137Z,23.00
2019-02-07T11:42:46.989Z,24.57
2019-02-07T11:45:47.334Z,20.53
2019-02-07T11:48:34.708Z,21.43
2019-02-07T11:51:32.180Z,20.90
2019-02-07T11:54:13.806Z,23.03
2019-02-07T11:57:00.426Z,21.53
2019-02-07T11:59:38.002Z,18.27
2019-02-07T12:02:41.459Z,22.23
2019-02-07T12:05:48.052Z,22.77
2019-02-07T12:08:51.410Z,20.00
2019-02-07T12:11:38.411Z,20.30
2019-02-07T12:14:15.499Z,18.13
2019-02-07T12:17:15.091Z,16.80
2019-02-07T12:20:03.508Z,18.40
2019-02-07T12:22:48.242Z,17.50
2019-02-07T12:25:35.079Z,17.50
2019-02-07T12:28:38.149Z,19.60
2019-02-07T12:31:15.415Z,18.57
2019-02-07T12:34:02.274Z,19.43
2019-02-07T12:36:40.245Z,16.93
2019-02-07T12:39:21.287Z,17.80
2019-02-07T12:42:09.893Z,21.30
2019-02-07T12:45:01.242Z,17.70
2019-02-07T12:47:47.911Z,15.30
2019-02-07T12:50:48.213Z,17.47
2019-02-07T12:53:28.267Z,14.53
2019-02-07T12:56:22.337Z,14.63
2019-02-07T12:59:06.945Z,18.10
2019-02-07T13:02:07.751Z,14.97
2019-02-07T13:04:54.453Z,15.10
2019-02-07T13:07:48.693Z,16.20
2019-02-07T13:10:36.769Z,14.60
2019-02-07T13:13:26.568Z,15.60
2019-02-07T13:16:29.856Z,14.27
2019-02-07T13:19:27.937Z,17.53
2019-02-07T13:22:22.042Z,16.43
2019-02-07T13:25:16.345Z,15.97
2019-02-07T13:28:07.453Z,14.90
2019-02-07T13:30:58.840Z,14.57
2019-02-07T13:33:45.767Z,15.47
2019-02-07T13:36:37.283Z,14.13
2019-02-07T13:39:37.702Z,14.13
2019-02-07T13:42:29.686Z,14.50
2019-02-07T13:45:21.001Z,17.23
2019-02-07T13:48:03.456Z,16.63
2019-02-07T13:50:54.910Z,13.70
2019-02-07T13:53:38.783Z,13.53
2019-02-07T13:56:42.351Z,14.70
2019-02-07T13:59:36.665Z,17.07
2019-02-07T14:02:23.717Z,16.17
2019-02-07T14:05:11.281Z,15.10
2019-02-07T14:08:12.060Z,15.27
2019-02-07T14:11:06.459Z,15.80
2019-02-07T14:13:53.677Z,14.53
2019-02-07T14:16:54.401Z,19.60
2019-02-07T14:19:36.804Z,15.00
2019-02-07T14:22:35.436Z,13.33
2019-02-07T14:25:16.693Z,12.93
2019-02-07T14:28:03.784Z,13.90
2019-02-07T14:30:50.396Z,15.07
2019-02-07T14:33:38.692Z,15.90
2019-02-07T14:36:25.863Z,16.97
2019-02-07T14:39:23.468Z,18.90
2019-02-07T14:42:00.519Z,12.83
2019-02-07T14:45:06.821Z,20.27
2019-02-07T14:47:36.529Z,16.83
2019-02-07T14:50:14.509Z,15.50
2019-02-07T14:52:38.917Z,14.73
2019-02-07T14:55:08.985Z,14.97
2019-02-07T14:57:38.635Z,14.63
2019-02-07T15:00:11.782Z,11.67
2019-02-07T15:02:41.057Z,15.50
2019-02-07T15:05:11.284Z,12.87
2019-02-07T15:07:40.694Z,14.33
2019-02-07T15:10:12.828Z,15.17
2019-02-07T15:12:42.198Z,15.20
2019-02-07T15:15:13.197Z,14.30
2019-02-07T15:17:42.490Z,13.50
2019-02-07T15:20:12.017Z,12.50
2019-02-07T15:22:41.817Z,13.27
2019-02-07T15:25:11.879Z,13.50
2019-02-07T15:27:41.362Z,14.20
2019-02-07T15:30:13.713Z,12.77
2019-02-07T15:32:42.975Z,13.13
2019-02-07T15:35:23.591Z,14.43
2019-02-07T15:37:53.082Z,15.20
2019-02-07T15:40:25.472Z,14.13
2019-02-07T15:42:55.059Z,17.50
2019-02-07T15:45:24.597Z,16.17
2019-02-07T15:47:53.973Z,12.77
2019-02-07T15:50:24.273Z,12.80
2019-02-07T15:52:55.712Z,13.50
2019-02-07T15:55:25.214Z,14.40
2019-02-07T15:57:54.863Z,11.77
2019-02-07T16:00:42.509Z,12.67
2019-02-07T16:03:16.361Z,9.50
2019-02-07T16:05:45.915Z,11.37
2019-02-07T16:08:15.213Z,12.13
2019-02-07T16:10:46.968Z,12.07
2019-02-07T16:13:16.321Z,13.07
2019-02-07T16:15:45.698Z,11.43
2019-02-07T16:18:14.929Z,12.07
2019-02-07T16:20:48.874Z,14.63
2019-02-07T16:23:16.134Z,13.10
2019-02-07T16:25:45.408Z,13.20
2019-02-07T16:28:14.718Z,15.80
2019-02-07T16:30:44.173Z,14.07
2019-02-07T16:33:13.955Z,14.17
2019-02-07T16:35:43.346Z,15.33
2019-02-07T16:38:12.717Z,15.43
2019-02-07T16:40:42.029Z,15.83
2019-02-07T16:43:11.482Z,13.33
2019-02-07T16:45:41.317Z,14.73
2019-02-07T16:48:10.827Z,13.63
2019-02-07T16:50:40.097Z,15.63
2019-02-07T16:53:09.626Z,13.93
2019-02-07T16:55:38.907Z,14.73
2019-02-07T16:58:08.169Z,15.27
2019-02-07T17:00:38.040Z,15.37
2019-02-07T17:03:07.646Z,15.43
2019-02-07T17:05:38.058Z,13.50
2019-02-07T17:08:08.638Z,16.90
2019-02-07T17:10:38.304Z,15.80
2019-02-07T17:13:09.476Z,15.10
2019-02-07T17:15:39.166Z,14.17
2019-02-07T17:18:08.517Z,20.93
2019-02-07T17:20:37.965Z,15.50
2019-02-07T17:23:07.832Z,18.20
2019-02-07T17:25:37.589Z,19.77
2019-02-07T17:28:07.647Z,18.23
2019-02-07T17:30:37.277Z,19.20
2019-02-07T17:33:06.607Z,18.93
2019-02-07T17:35:38.999Z,18.60
2019-02-07T17:38:08.380Z,16.93
2019-02-07T17:40:39.013Z,20.87
2019-02-07T17:43:08.666Z,20.50
2019-02-07T17:45:37.969Z,18.90
2019-02-07T17:48:07.529Z,25.10
2019-02-07T17:50:36.982Z,18.57
2019-02-07T17:53:07.099Z,19.97
2019-02-07T17:55:37.195Z,21.03
2019-02-07T17:58:07.355Z,21.53
2019-02-07T18:00:52.421Z,23.20
2019-02-07T18:03:21.789Z,21.27
2019-02-07T18:05:51.289Z,22.37
2019-02-07T18:08:21.094Z,19.47
2019-02-07T18:10:51.569Z,21.60
2019-02-07T18:13:20.885Z,21.23
2019-02-07T18:15:50.161Z,23.23
2019-02-07T18:18:19.716Z,19.23
2019-02-07T18:20:49.498Z,24.77
2019-02-07T18:23:18.840Z,23.13
2019-02-07T18:25:49.245Z,22.90
2019-02-07T18:28:18.830Z,20.30
2019-02-07T18:30:48.265Z,21.10
2019-02-07T18:33:19.070Z,21.93
2019-02-07T18:35:48.932Z,17.77
2019-02-07T18:38:18.257Z,19.83
2019-02-07T18:40:47.641Z,23.37
2019-02-07T18:43:16.941Z,18.87
2019-02-07T18:45:46.381Z,17.57
2019-02-07T18:48:15.801Z,22.57
2019-02-07T18:50:46.542Z,18.43
2019-02-07T18:53:15.787Z,17.53
2019-02-07T18:55:45.294Z,24.40
2019-02-07T18:58:14.563Z,22.87
2019-02-07T19:00:43.769Z,20.13
2019-02-07T19:03:13.127Z,21.07
2019-02-07T19:05:42.584Z,25.17
2019-02-07T19:08:11.905Z,18.87
2019-02-07T19:10:41.700Z,26.17
2019-02-07T19:13:11.715Z,22.33
2019-02-07T19:15:43.922Z,25.07
2019-02-07T19:18:13.184Z,21.13
2019-02-07T19:20:42.818Z,17.13
2019-02-07T19:23:12.812Z,20.27
2019-02-07T19:25:42.473Z,20.00
2019-02-07T19:28:11.861Z,19.40
2019-02-07T19:30:41.349Z,19.67
2019-02-07T19:33:10.716Z,21.57
2019-02-07T19:35:40.048Z,18.07
2019-02-07T19:38:09.313Z,19.60
2019-02-07T19:40:40.071Z,20.33
2019-02-07T19:43:09.570Z,22.60
2019-02-07T19:45:38.903Z,24.10
2019-02-07T19:48:08.983Z,17.93
2019-02-07T19:50:38.444Z,18.67
2019-02-07T19:53:07.709Z,20.17
2019-02-07T19:55:37.351Z,17.63
2019-02-07T19:58:06.856Z,20.60
2019-02-07T20:00:39.325Z,18.40
2019-02-07T20:03:07.915Z,21.00
2019-02-07T20:05:37.528Z,18.83
2019-02-07T20:08:06.997Z,20.07
2019-02-07T20:10:36.537Z,19.73
2019-02-07T20:13:06.030Z,18.13
2019-02-07T20:15:37.165Z,18.33
2019-02-07T20:18:08.056Z,16.80
2019-02-07T20:20:38.300Z,17.57
2019-02-07T20:23:07.837Z,18.47
2019-02-07T20:25:37.445Z,20.57
2019-02-07T20:28:06.700Z,17.70
2019-02-07T20:30:40.714Z,18.27
2019-02-07T20:33:10.635Z,20.30
2019-02-07T20:35:39.992Z,16.30
2019-02-07T20:38:10.141Z,16.90
2019-02-07T20:40:39.901Z,18.07
2019-02-07T20:43:09.776Z,15.23
2019-02-07T20:45:39.232Z,19.13
2019-02-07T20:48:09.222Z,16.73
2019-02-07T20:50:39.138Z,16.27
2019-02-07T20:53:11.230Z,18.40
2019-02-07T20:55:40.996Z,13.80
2019-02-07T20:58:10.548Z,16.67
2019-02-07T21:00:40.539Z,13.00
2019-02-07T21:03:09.965Z,13.30
2019-02-07T21:05:39.515Z,14.53
2019-02-07T21:08:08.773Z,13.87
2019-02-07T21:10:38.200Z,14.27
2019-02-07T21:13:07.911Z,15.70
2019-02-07T21:15:37.701Z,14.80
2019-02-07T21:18:07.330Z,11.67
2019-02-07T21:20:36.874Z,13.73
2019-02-07T21:23:06.495Z,12.70
2019-02-07T21:25:42.037Z,12.73
2019-02-07T21:28:11.788Z,12.13
2019-02-07T21:30:41.143Z,12.70
2019-02-07T21:33:10.851Z,11.70
2019-02-07T21:35:40.142Z,10.60
2019-02-07T21:38:09.662Z,14.20
2019-02-07T21:40:39.293Z,9.03
2019-02-07T21:43:08.942Z,10.10
2019-02-07T21:45:38.171Z,9.77
2019-02-07T21:48:10.201Z,13.43
2019-02-07T21:50:39.714Z,9.87
2019-02-07T21:53:09.351Z,11.80
2019-02-07T21:55:38.583Z,10.70
2019-02-07T21:58:08.616Z,9.93
2019-02-07T22:00:39.782Z,13.93
2019-02-07T22:03:10.797Z,11.20
2019-02-07T22:05:40.149Z,9.03
2019-02-07T22:08:10.003Z,12.27
2019-02-07T22:10:39.383Z,8.77
2019-02-07T22:13:08.770Z,13.73
2019-02-07T22:15:37.956Z,13.03
2019-02-07T22:18:09.321Z,11.20
2019-02-07T22:20:38.546Z,13.00
2019-02-07T22:23:07.949Z,10.90
2019-02-07T22:25:37.124Z,10.47
2019-02-07T22:28:07.121Z,9.03
2019-02-07T22:30:36.863Z,10.37
2019-02-07T22:33:06.693Z,10.20
2019-02-07T22:35:36.032Z,9.50
2019-02-07T22:38:06.527Z,6.97
2019-02-07T22:40:35.784Z,8.40
2019-02-07T22:43:05.530Z,7.53
2019-02-07T22:45:35.251Z,7.90
2019-02-07T22:48:05.029Z,9.30
2019-02-07T22:50:34.299Z,8.17
2019-02-07T22:53:03.996Z,8.67
2019-02-07T22:55:33.243Z,10.33
2019-02-07T22:58:02.544Z,9.87
2019-02-07T23:01:25.264Z,7.97
2019-02-07T23:03:59.203Z,6.57
2019-02-07T23:06:28.492Z,7.33
2019-02-07T23:08:57.867Z,7.97
2019-02-07T23:11:27.157Z,8.77
2019-02-07T23:13:56.480Z,8.93
2019-02-07T23:16:25.834Z,10.37
2019-02-07T23:18:55.112Z,8.17
2019-02-07T23:21:24.423Z,7.67
2019-02-07T23:23:53.808Z,6.93
2019-02-07T23:26:23.215Z,9.37
2019-02-07T23:28:52.512Z,7.23
2019-02-07T23:31:21.871Z,8.13
2019-02-07T23:33:51.529Z,9.03
2019-02-07T23:36:21.188Z,9.27
2019-02-07T23:38:50.538Z,9.03
2019-02-07T23:41:19.852Z,9.10
2019-02-07T23:43:49.103Z,8.00
2019-02-07T23:46:18.638Z,9.00
2019-02-07T23:48:48.136Z,8.63
2019-02-07T23:51:17.458Z,9.20
2019-02-07T23:53:46.737Z,9.80
2019-02-07T23:56:16.135Z,9.00
2019-02-07T23:58:45.394Z,6.87
